LTAR

Sivas Airport

Sivas, Turkey
TAF LTAR 251640Z 2518/2603 01015G28KT 9999 FEW040
Issued Valid From Valid To
Sep-25 @ 16:40 UTC
(an hour ago)
Sep-25 @ 18:00 UTC
(in 17 minutes)
Sep-26 @ 03:00 UTC
(in 9 hours)
Sep-25 @ 18:00 to Sep-26 @ 03:00
TAF LTAR 251640Z 2518/2603 01015G28KT 9999 FEW040
Wind Visibility Clouds
10° at 15 knots
 Gusting to 28 knots
10,000+ meters
  • Few at 4,000' AGL
TAF LTAR 251640Z 2518/2603 01015G28KT 9999 FEW040
Issued Sep-25 @ 16:40 UTC
(an hour ago)
Valid From Sep-25 @ 18:00 UTC
(in 17 minutes)
Valid To Sep-26 @ 03:00 UTC
(in 9 hours)
Sep-25 @ 18:00 - Sep-26 @ 03:00
Wind Visibility
10° at 15 knots
 Gusting to 28 knots
10,000+ meters
Clouds
  • Few at 4,000' AGL